sensor_id;sensor_type;location;lat;lon;timestamp;P1;durP1;ratioP1;P2;durP2;ratioP2
53666;SDS011;39568;51.026;5.468;2023-05-14T00:01:19;21.58;;;19.25;;
53666;SDS011;39568;51.026;5.468;2023-05-14T00:03:46;17.77;;;15.98;;
53666;SDS011;39568;51.026;5.468;2023-05-14T00:06:15;17.20;;;15.38;;
53666;SDS011;39568;51.026;5.468;2023-05-14T00:08:46;17.75;;;13.95;;
53666;SDS011;39568;51.026;5.468;2023-05-14T00:11:13;15.60;;;12.10;;
53666;SDS011;39568;51.026;5.468;2023-05-14T00:13:42;16.65;;;12.77;;
53666;SDS011;39568;51.026;5.468;2023-05-14T00:16:13;16.95;;;12.77;;
53666;SDS011;39568;51.026;5.468;2023-05-14T00:18:40;14.25;;;12.80;;
53666;SDS011;39568;51.026;5.468;2023-05-14T00:21:09;15.93;;;13.48;;
53666;SDS011;39568;51.026;5.468;2023-05-14T00:23:42;25.70;;;22.95;;
53666;SDS011;39568;51.026;5.468;2023-05-14T00:26:08;38.13;;;30.48;;
53666;SDS011;39568;51.026;5.468;2023-05-14T00:28:35;28.48;;;25.33;;
53666;SDS011;39568;51.026;5.468;2023-05-14T00:31:03;18.35;;;16.55;;
53666;SDS011;39568;51.026;5.468;2023-05-14T00:33:31;18.48;;;16.70;;
53666;SDS011;39568;51.026;5.468;2023-05-14T00:36:02;22.70;;;18.00;;
53666;SDS011;39568;51.026;5.468;2023-05-14T00:38:29;22.40;;;17.25;;
53666;SDS011;39568;51.026;5.468;2023-05-14T00:40:58;33.40;;;26.05;;
53666;SDS011;39568;51.026;5.468;2023-05-14T00:43:25;25.08;;;22.63;;
53666;SDS011;39568;51.026;5.468;2023-05-14T00:45:52;24.23;;;22.02;;
53666;SDS011;39568;51.026;5.468;2023-05-14T00:48:23;20.35;;;18.08;;
53666;SDS011;39568;51.026;5.468;2023-05-14T00:50:50;21.85;;;16.55;;
53666;SDS011;39568;51.026;5.468;2023-05-14T00:53:18;16.08;;;14.45;;
53666;SDS011;39568;51.026;5.468;2023-05-14T00:55:56;23.77;;;17.00;;
53666;SDS011;39568;51.026;5.468;2023-05-14T00:58:28;16.73;;;15.10;;
53666;SDS011;39568;51.026;5.468;2023-05-14T01:00:55;24.23;;;16.20;;
53666;SDS011;39568;51.026;5.468;2023-05-14T01:03:23;21.02;;;16.77;;
53666;SDS011;39568;51.026;5.468;2023-05-14T01:05:52;29.42;;;16.85;;
53666;SDS011;39568;51.026;5.468;2023-05-14T01:08:26;24.45;;;19.38;;
53666;SDS011;39568;51.026;5.468;2023-05-14T01:11:02;26.65;;;17.27;;
53666;SDS011;39568;51.026;5.468;2023-05-14T01:13:32;19.38;;;17.50;;
53666;SDS011;39568;51.026;5.468;2023-05-14T01:16:06;21.23;;;17.67;;
53666;SDS011;39568;51.026;5.468;2023-05-14T01:18:41;22.63;;;19.85;;
53666;SDS011;39568;51.026;5.468;2023-05-14T01:23:59;22.63;;;18.08;;
53666;SDS011;39568;51.026;5.468;2023-05-14T01:26:26;25.85;;;17.55;;
53666;SDS011;39568;51.026;5.468;2023-05-14T01:28:54;19.63;;;17.00;;
53666;SDS011;39568;51.026;5.468;2023-05-14T01:31:24;21.63;;;16.58;;
53666;SDS011;39568;51.026;5.468;2023-05-14T01:33:53;18.85;;;16.77;;
53666;SDS011;39568;51.026;5.468;2023-05-14T01:36:20;21.60;;;16.83;;
53666;SDS011;39568;51.026;5.468;2023-05-14T01:38:55;23.55;;;16.48;;
53666;SDS011;39568;51.026;5.468;2023-05-14T01:41:23;30.38;;;18.23;;
53666;SDS011;39568;51.026;5.468;2023-05-14T01:43:51;20.45;;;17.85;;
53666;SDS011;39568;51.026;5.468;2023-05-14T01:46:24;24.23;;;18.10;;
53666;SDS011;39568;51.026;5.468;2023-05-14T01:48:52;27.80;;;20.30;;
53666;SDS011;39568;51.026;5.468;2023-05-14T01:51:19;24.25;;;20.30;;
53666;SDS011;39568;51.026;5.468;2023-05-14T01:53:46;28.60;;;20.70;;
53666;SDS011;39568;51.026;5.468;2023-05-14T01:56:14;24.85;;;20.17;;
53666;SDS011;39568;51.026;5.468;2023-05-14T01:58:40;29.65;;;20.88;;
53666;SDS011;39568;51.026;5.468;2023-05-14T02:01:07;20.02;;;17.90;;
53666;SDS011;39568;51.026;5.468;2023-05-14T02:03:37;30.77;;;18.65;;
53666;SDS011;39568;51.026;5.468;2023-05-14T02:06:03;35.50;;;20.95;;
53666;SDS011;39568;51.026;5.468;2023-05-14T02:08:30;29.25;;;20.42;;
53666;SDS011;39568;51.026;5.468;2023-05-14T02:10:57;25.30;;;20.75;;
53666;SDS011;39568;51.026;5.468;2023-05-14T02:13:25;21.45;;;18.90;;
53666;SDS011;39568;51.026;5.468;2023-05-14T02:15:55;21.75;;;19.02;;
53666;SDS011;39568;51.026;5.468;2023-05-14T02:18:21;24.85;;;19.95;;
53666;SDS011;39568;51.026;5.468;2023-05-14T02:20:48;30.83;;;19.73;;
53666;SDS011;39568;51.026;5.468;2023-05-14T02:23:15;25.13;;;21.33;;
53666;SDS011;39568;51.026;5.468;2023-05-14T02:25:46;25.85;;;20.08;;
53666;SDS011;39568;51.026;5.468;2023-05-14T02:28:13;27.88;;;20.58;;
53666;SDS011;39568;51.026;5.468;2023-05-14T02:30:41;32.03;;;21.42;;
53666;SDS011;39568;51.026;5.468;2023-05-14T02:33:08;21.85;;;17.45;;
53666;SDS011;39568;51.026;5.468;2023-05-14T02:35:34;22.25;;;19.83;;
53666;SDS011;39568;51.026;5.468;2023-05-14T02:38:01;26.52;;;20.83;;
53666;SDS011;39568;51.026;5.468;2023-05-14T02:40:30;30.40;;;20.02;;
53666;SDS011;39568;51.026;5.468;2023-05-14T02:42:56;25.67;;;22.55;;
53666;SDS011;39568;51.026;5.468;2023-05-14T02:45:23;24.70;;;21.23;;
53666;SDS011;39568;51.026;5.468;2023-05-14T02:47:51;30.55;;;21.73;;
53666;SDS011;39568;51.026;5.468;2023-05-14T02:50:18;23.85;;;20.05;;
53666;SDS011;39568;51.026;5.468;2023-05-14T02:52:50;23.80;;;19.13;;
53666;SDS011;39568;51.026;5.468;2023-05-14T02:55:16;24.92;;;20.17;;
53666;SDS011;39568;51.026;5.468;2023-05-14T02:57:50;29.00;;;21.30;;
53666;SDS011;39568;51.026;5.468;2023-05-14T03:00:17;27.50;;;22.23;;
53666;SDS011;39568;51.026;5.468;2023-05-14T03:02:45;35.45;;;25.45;;
53666;SDS011;39568;51.026;5.468;2023-05-14T03:05:13;35.30;;;24.50;;
53666;SDS011;39568;51.026;5.468;2023-05-14T03:07:39;33.10;;;23.05;;
53666;SDS011;39568;51.026;5.468;2023-05-14T03:10:07;27.77;;;23.20;;
53666;SDS011;39568;51.026;5.468;2023-05-14T03:12:37;39.42;;;24.63;;
53666;SDS011;39568;51.026;5.468;2023-05-14T03:15:04;38.05;;;26.10;;
53666;SDS011;39568;51.026;5.468;2023-05-14T03:17:31;41.38;;;27.90;;
53666;SDS011;39568;51.026;5.468;2023-05-14T03:19:59;45.50;;;26.92;;
53666;SDS011;39568;51.026;5.468;2023-05-14T03:22:29;34.63;;;26.77;;
53666;SDS011;39568;51.026;5.468;2023-05-14T03:24:56;33.63;;;27.05;;
53666;SDS011;39568;51.026;5.468;2023-05-14T03:27:23;31.38;;;23.13;;
53666;SDS011;39568;51.026;5.468;2023-05-14T03:29:50;36.38;;;25.42;;
53666;SDS011;39568;51.026;5.468;2023-05-14T03:32:16;32.92;;;23.33;;
53666;SDS011;39568;51.026;5.468;2023-05-14T03:34:43;38.50;;;25.65;;
53666;SDS011;39568;51.026;5.468;2023-05-14T03:37:10;38.17;;;24.88;;
53666;SDS011;39568;51.026;5.468;2023-05-14T03:39:38;34.75;;;26.98;;
53666;SDS011;39568;51.026;5.468;2023-05-14T03:42:06;34.97;;;26.83;;
53666;SDS011;39568;51.026;5.468;2023-05-14T03:44:33;41.75;;;27.60;;
53666;SDS011;39568;51.026;5.468;2023-05-14T03:47:01;35.15;;;28.75;;
53666;SDS011;39568;51.026;5.468;2023-05-14T03:49:28;32.70;;;23.67;;
53666;SDS011;39568;51.026;5.468;2023-05-14T03:51:54;25.75;;;21.13;;
53666;SDS011;39568;51.026;5.468;2023-05-14T03:54:23;35.45;;;23.38;;
53666;SDS011;39568;51.026;5.468;2023-05-14T03:56:51;30.70;;;25.27;;
53666;SDS011;39568;51.026;5.468;2023-05-14T03:59:18;40.35;;;27.13;;
53666;SDS011;39568;51.026;5.468;2023-05-14T04:01:44;31.02;;;24.73;;
53666;SDS011;39568;51.026;5.468;2023-05-14T04:04:11;35.05;;;24.17;;
53666;SDS011;39568;51.026;5.468;2023-05-14T04:06:38;41.40;;;25.98;;
53666;SDS011;39568;51.026;5.468;2023-05-14T04:09:05;35.85;;;26.02;;
53666;SDS011;39568;51.026;5.468;2023-05-14T04:11:34;40.25;;;26.75;;
53666;SDS011;39568;51.026;5.468;2023-05-14T04:14:03;37.05;;;26.85;;
53666;SDS011;39568;51.026;5.468;2023-05-14T04:16:31;37.50;;;25.67;;
53666;SDS011;39568;51.026;5.468;2023-05-14T04:18:59;37.05;;;24.95;;
53666;SDS011;39568;51.026;5.468;2023-05-14T04:21:30;35.28;;;24.33;;
53666;SDS011;39568;51.026;5.468;2023-05-14T04:23:57;35.47;;;25.80;;
53666;SDS011;39568;51.026;5.468;2023-05-14T04:26:24;39.83;;;28.13;;
53666;SDS011;39568;51.026;5.468;2023-05-14T04:28:50;49.95;;;30.42;;
53666;SDS011;39568;51.026;5.468;2023-05-14T04:31:18;42.85;;;30.80;;
53666;SDS011;39568;51.026;5.468;2023-05-14T04:33:45;52.55;;;31.88;;
53666;SDS011;39568;51.026;5.468;2023-05-14T04:36:12;40.08;;;30.95;;
53666;SDS011;39568;51.026;5.468;2023-05-14T04:38:40;45.97;;;32.58;;
53666;SDS011;39568;51.026;5.468;2023-05-14T04:41:07;39.20;;;30.85;;
53666;SDS011;39568;51.026;5.468;2023-05-14T04:43:33;44.83;;;32.00;;
53666;SDS011;39568;51.026;5.468;2023-05-14T04:46:00;47.08;;;33.08;;
53666;SDS011;39568;51.026;5.468;2023-05-14T04:48:28;44.25;;;32.20;;
53666;SDS011;39568;51.026;5.468;2023-05-14T04:50:55;58.03;;;33.58;;
53666;SDS011;39568;51.026;5.468;2023-05-14T04:53:21;48.08;;;31.80;;
53666;SDS011;39568;51.026;5.468;2023-05-14T04:55:48;51.38;;;33.40;;
53666;SDS011;39568;51.026;5.468;2023-05-14T04:58:15;44.60;;;31.98;;
53666;SDS011;39568;51.026;5.468;2023-05-14T05:00:47;49.35;;;31.63;;
53666;SDS011;39568;51.026;5.468;2023-05-14T05:03:14;50.67;;;31.52;;
53666;SDS011;39568;51.026;5.468;2023-05-14T05:05:45;44.67;;;31.42;;
53666;SDS011;39568;51.026;5.468;2023-05-14T05:08:12;47.75;;;33.60;;
53666;SDS011;39568;51.026;5.468;2023-05-14T05:10:38;42.00;;;30.13;;
53666;SDS011;39568;51.026;5.468;2023-05-14T05:13:05;41.83;;;30.10;;
53666;SDS011;39568;51.026;5.468;2023-05-14T05:15:32;38.92;;;30.30;;
53666;SDS011;39568;51.026;5.468;2023-05-14T05:17:59;43.03;;;29.88;;
53666;SDS011;39568;51.026;5.468;2023-05-14T05:20:26;48.65;;;30.55;;
53666;SDS011;39568;51.026;5.468;2023-05-14T05:22:54;41.58;;;28.50;;
53666;SDS011;39568;51.026;5.468;2023-05-14T05:25:21;42.67;;;30.33;;
53666;SDS011;39568;51.026;5.468;2023-05-14T05:27:47;41.50;;;30.23;;
53666;SDS011;39568;51.026;5.468;2023-05-14T05:30:14;47.33;;;30.92;;
53666;SDS011;39568;51.026;5.468;2023-05-14T05:32:41;42.88;;;30.73;;
53666;SDS011;39568;51.026;5.468;2023-05-14T05:35:08;46.35;;;31.27;;
53666;SDS011;39568;51.026;5.468;2023-05-14T05:37:35;43.55;;;29.75;;
53666;SDS011;39568;51.026;5.468;2023-05-14T05:40:03;42.03;;;30.27;;
53666;SDS011;39568;51.026;5.468;2023-05-14T05:42:31;38.22;;;29.58;;
53666;SDS011;39568;51.026;5.468;2023-05-14T05:45:00;39.88;;;29.70;;
53666;SDS011;39568;51.026;5.468;2023-05-14T05:47:26;43.58;;;30.33;;
53666;SDS011;39568;51.026;5.468;2023-05-14T05:49:54;47.15;;;27.35;;
53666;SDS011;39568;51.026;5.468;2023-05-14T05:52:23;43.70;;;29.02;;
53666;SDS011;39568;51.026;5.468;2023-05-14T05:54:52;40.88;;;27.58;;
53666;SDS011;39568;51.026;5.468;2023-05-14T05:57:20;40.15;;;29.13;;
53666;SDS011;39568;51.026;5.468;2023-05-14T05:59:47;41.35;;;28.13;;
53666;SDS011;39568;51.026;5.468;2023-05-14T06:02:16;48.67;;;28.40;;
53666;SDS011;39568;51.026;5.468;2023-05-14T06:04:43;44.30;;;28.30;;
53666;SDS011;39568;51.026;5.468;2023-05-14T06:07:09;46.50;;;28.67;;
53666;SDS011;39568;51.026;5.468;2023-05-14T06:09:37;44.90;;;26.88;;
53666;SDS011;39568;51.026;5.468;2023-05-14T06:12:04;42.67;;;28.60;;
53666;SDS011;39568;51.026;5.468;2023-05-14T06:14:33;39.90;;;26.45;;
53666;SDS011;39568;51.026;5.468;2023-05-14T06:17:05;38.80;;;26.75;;
53666;SDS011;39568;51.026;5.468;2023-05-14T06:19:32;31.60;;;21.60;;
53666;SDS011;39568;51.026;5.468;2023-05-14T06:21:58;41.85;;;25.98;;
53666;SDS011;39568;51.026;5.468;2023-05-14T06:24:27;37.83;;;27.27;;
53666;SDS011;39568;51.026;5.468;2023-05-14T06:26:53;40.30;;;27.75;;
53666;SDS011;39568;51.026;5.468;2023-05-14T06:29:20;31.50;;;23.45;;
53666;SDS011;39568;51.026;5.468;2023-05-14T06:31:48;28.92;;;19.25;;
53666;SDS011;39568;51.026;5.468;2023-05-14T06:34:15;37.75;;;24.02;;
53666;SDS011;39568;51.026;5.468;2023-05-14T06:36:42;34.45;;;22.17;;
53666;SDS011;39568;51.026;5.468;2023-05-14T06:39:08;38.55;;;25.67;;
53666;SDS011;39568;51.026;5.468;2023-05-14T06:41:36;35.13;;;24.27;;
53666;SDS011;39568;51.026;5.468;2023-05-14T06:44:07;31.45;;;24.45;;
53666;SDS011;39568;51.026;5.468;2023-05-14T06:46:37;29.52;;;22.13;;
53666;SDS011;39568;51.026;5.468;2023-05-14T06:49:10;39.13;;;23.42;;
53666;SDS011;39568;51.026;5.468;2023-05-14T06:51:37;31.80;;;18.88;;
53666;SDS011;39568;51.026;5.468;2023-05-14T06:54:04;39.17;;;22.88;;
53666;SDS011;39568;51.026;5.468;2023-05-14T06:56:32;37.08;;;22.92;;
53666;SDS011;39568;51.026;5.468;2023-05-14T06:59:00;28.02;;;21.55;;
53666;SDS011;39568;51.026;5.468;2023-05-14T07:01:26;26.48;;;19.67;;
53666;SDS011;39568;51.026;5.468;2023-05-14T07:03:54;30.15;;;21.55;;
53666;SDS011;39568;51.026;5.468;2023-05-14T07:06:22;34.05;;;21.63;;
53666;SDS011;39568;51.026;5.468;2023-05-14T07:08:52;27.65;;;20.02;;
53666;SDS011;39568;51.026;5.468;2023-05-14T07:11:19;29.08;;;21.23;;
53666;SDS011;39568;51.026;5.468;2023-05-14T07:13:46;26.60;;;21.08;;
53666;SDS011;39568;51.026;5.468;2023-05-14T07:16:17;29.05;;;20.23;;
53666;SDS011;39568;51.026;5.468;2023-05-14T07:18:43;22.05;;;18.02;;
53666;SDS011;39568;51.026;5.468;2023-05-14T07:21:10;29.77;;;21.40;;
53666;SDS011;39568;51.026;5.468;2023-05-14T07:23:39;25.05;;;21.52;;
53666;SDS011;39568;51.026;5.468;2023-05-14T07:26:13;36.00;;;19.65;;
53666;SDS011;39568;51.026;5.468;2023-05-14T07:28:42;28.23;;;20.90;;
53666;SDS011;39568;51.026;5.468;2023-05-14T07:31:10;24.40;;;19.45;;
53666;SDS011;39568;51.026;5.468;2023-05-14T07:33:36;27.42;;;19.15;;
53666;SDS011;39568;51.026;5.468;2023-05-14T07:36:03;22.77;;;18.35;;
53666;SDS011;39568;51.026;5.468;2023-05-14T07:38:30;28.52;;;19.25;;
53666;SDS011;39568;51.026;5.468;2023-05-14T07:40:59;22.98;;;17.35;;
53666;SDS011;39568;51.026;5.468;2023-05-14T07:43:26;24.23;;;14.98;;
53666;SDS011;39568;51.026;5.468;2023-05-14T07:45:52;27.70;;;21.20;;
53666;SDS011;39568;51.026;5.468;2023-05-14T07:48:19;29.35;;;19.23;;
53666;SDS011;39568;51.026;5.468;2023-05-14T07:50:49;37.45;;;19.33;;
53666;SDS011;39568;51.026;5.468;2023-05-14T07:53:15;25.25;;;18.80;;
53666;SDS011;39568;51.026;5.468;2023-05-14T07:55:43;19.85;;;15.30;;
53666;SDS011;39568;51.026;5.468;2023-05-14T07:58:13;20.40;;;11.93;;
53666;SDS011;39568;51.026;5.468;2023-05-14T08:00:44;21.90;;;17.60;;
53666;SDS011;39568;51.026;5.468;2023-05-14T08:03:11;21.92;;;19.33;;
53666;SDS011;39568;51.026;5.468;2023-05-14T08:05:37;20.90;;;15.15;;
53666;SDS011;39568;51.026;5.468;2023-05-14T08:08:04;25.55;;;19.05;;
53666;SDS011;39568;51.026;5.468;2023-05-14T08:10:39;13.38;;;11.73;;
53666;SDS011;39568;51.026;5.468;2023-05-14T08:13:06;27.38;;;20.00;;
53666;SDS011;39568;51.026;5.468;2023-05-14T08:15:34;30.90;;;17.95;;
53666;SDS011;39568;51.026;5.468;2023-05-14T08:18:00;23.98;;;17.98;;
53666;SDS011;39568;51.026;5.468;2023-05-14T08:20:36;23.45;;;17.52;;
53666;SDS011;39568;51.026;5.468;2023-05-14T08:23:03;22.40;;;16.58;;
53666;SDS011;39568;51.026;5.468;2023-05-14T08:25:31;29.88;;;17.50;;
53666;SDS011;39568;51.026;5.468;2023-05-14T08:27:58;24.38;;;18.75;;
53666;SDS011;39568;51.026;5.468;2023-05-14T08:30:25;38.80;;;18.77;;
53666;SDS011;39568;51.026;5.468;2023-05-14T08:32:54;32.65;;;17.15;;
53666;SDS011;39568;51.026;5.468;2023-05-14T08:35:20;24.00;;;16.55;;
53666;SDS011;39568;51.026;5.468;2023-05-14T08:37:47;24.58;;;15.80;;
53666;SDS011;39568;51.026;5.468;2023-05-14T08:40:15;35.08;;;20.50;;
53666;SDS011;39568;51.026;5.468;2023-05-14T08:42:42;20.52;;;15.95;;
53666;SDS011;39568;51.026;5.468;2023-05-14T08:45:10;19.67;;;10.75;;
53666;SDS011;39568;51.026;5.468;2023-05-14T08:47:42;28.13;;;18.58;;
53666;SDS011;39568;51.026;5.468;2023-05-14T08:50:13;24.38;;;17.80;;
53666;SDS011;39568;51.026;5.468;2023-05-14T08:52:40;25.08;;;17.63;;
53666;SDS011;39568;51.026;5.468;2023-05-14T08:55:10;25.73;;;15.90;;
53666;SDS011;39568;51.026;5.468;2023-05-14T08:57:37;27.38;;;16.88;;
53666;SDS011;39568;51.026;5.468;2023-05-14T09:00:05;17.83;;;12.48;;
53666;SDS011;39568;51.026;5.468;2023-05-14T09:02:36;24.30;;;14.55;;
53666;SDS011;39568;51.026;5.468;2023-05-14T09:05:18;18.67;;;14.77;;
53666;SDS011;39568;51.026;5.468;2023-05-14T09:07:45;24.43;;;14.73;;
53666;SDS011;39568;51.026;5.468;2023-05-14T09:10:12;21.95;;;14.52;;
53666;SDS011;39568;51.026;5.468;2023-05-14T09:12:39;19.55;;;12.88;;
53666;SDS011;39568;51.026;5.468;2023-05-14T09:15:06;17.58;;;12.23;;
53666;SDS011;39568;51.026;5.468;2023-05-14T09:17:34;16.05;;;12.93;;
53666;SDS011;39568;51.026;5.468;2023-05-14T09:20:07;18.52;;;13.30;;
53666;SDS011;39568;51.026;5.468;2023-05-14T09:22:37;19.58;;;14.80;;
53666;SDS011;39568;51.026;5.468;2023-05-14T09:25:06;21.25;;;15.90;;
53666;SDS011;39568;51.026;5.468;2023-05-14T09:27:34;18.27;;;13.45;;
53666;SDS011;39568;51.026;5.468;2023-05-14T09:30:05;15.40;;;13.50;;
53666;SDS011;39568;51.026;5.468;2023-05-14T09:32:34;24.92;;;10.18;;
53666;SDS011;39568;51.026;5.468;2023-05-14T09:35:08;22.25;;;13.45;;
53666;SDS011;39568;51.026;5.468;2023-05-14T09:37:43;19.30;;;12.77;;
53666;SDS011;39568;51.026;5.468;2023-05-14T09:40:12;20.08;;;13.82;;
53666;SDS011;39568;51.026;5.468;2023-05-14T09:42:39;9.23;;;8.20;;
53666;SDS011;39568;51.026;5.468;2023-05-14T09:45:06;20.88;;;13.20;;
53666;SDS011;39568;51.026;5.468;2023-05-14T09:47:34;14.95;;;11.70;;
53666;SDS011;39568;51.026;5.468;2023-05-14T09:50:01;8.98;;;8.15;;
53666;SDS011;39568;51.026;5.468;2023-05-14T09:52:27;18.42;;;12.32;;
53666;SDS011;39568;51.026;5.468;2023-05-14T09:54:56;19.67;;;10.65;;
53666;SDS011;39568;51.026;5.468;2023-05-14T09:57:23;14.80;;;10.68;;
53666;SDS011;39568;51.026;5.468;2023-05-14T09:59:51;20.13;;;10.90;;
53666;SDS011;39568;51.026;5.468;2023-05-14T10:02:21;10.45;;;8.18;;
53666;SDS011;39568;51.026;5.468;2023-05-14T10:04:49;13.38;;;10.45;;
53666;SDS011;39568;51.026;5.468;2023-05-14T10:07:24;24.30;;;11.65;;
53666;SDS011;39568;51.026;5.468;2023-05-14T10:09:58;14.77;;;10.90;;
53666;SDS011;39568;51.026;5.468;2023-05-14T10:12:28;10.95;;;9.88;;
53666;SDS011;39568;51.026;5.468;2023-05-14T10:14:59;21.05;;;10.05;;
53666;SDS011;39568;51.026;5.468;2023-05-14T10:17:32;14.25;;;9.25;;
53666;SDS011;39568;51.026;5.468;2023-05-14T10:20:01;8.00;;;7.20;;
53666;SDS011;39568;51.026;5.468;2023-05-14T10:22:30;13.60;;;7.03;;
53666;SDS011;39568;51.026;5.468;2023-05-14T10:25:02;14.70;;;6.90;;
53666;SDS011;39568;51.026;5.468;2023-05-14T10:27:29;12.00;;;6.70;;
53666;SDS011;39568;51.026;5.468;2023-05-14T10:29:57;6.22;;;5.55;;
53666;SDS011;39568;51.026;5.468;2023-05-14T10:32:27;6.65;;;6.05;;
53666;SDS011;39568;51.026;5.468;2023-05-14T10:34:57;9.52;;;8.70;;
53666;SDS011;39568;51.026;5.468;2023-05-14T10:37:24;8.70;;;7.80;;
53666;SDS011;39568;51.026;5.468;2023-05-14T10:39:57;18.10;;;7.72;;
53666;SDS011;39568;51.026;5.468;2023-05-14T10:44:54;8.70;;;7.90;;
53666;SDS011;39568;51.026;5.468;2023-05-14T10:47:22;11.35;;;8.45;;
53666;SDS011;39568;51.026;5.468;2023-05-14T10:49:52;12.93;;;8.82;;
53666;SDS011;39568;51.026;5.468;2023-05-14T10:52:20;10.87;;;8.13;;
53666;SDS011;39568;51.026;5.468;2023-05-14T10:54:48;8.98;;;8.18;;
53666;SDS011;39568;51.026;5.468;2023-05-14T10:57:19;14.85;;;8.60;;
53666;SDS011;39568;51.026;5.468;2023-05-14T10:59:49;12.20;;;9.32;;
53666;SDS011;39568;51.026;5.468;2023-05-14T11:02:19;10.77;;;8.30;;
53666;SDS011;39568;51.026;5.468;2023-05-14T11:04:56;12.15;;;8.05;;
53666;SDS011;39568;51.026;5.468;2023-05-14T11:07:27;19.15;;;8.57;;
53666;SDS011;39568;51.026;5.468;2023-05-14T11:09:58;8.68;;;7.82;;
53666;SDS011;39568;51.026;5.468;2023-05-14T11:12:26;10.73;;;8.00;;
53666;SDS011;39568;51.026;5.468;2023-05-14T11:14:54;10.77;;;7.85;;
53666;SDS011;39568;51.026;5.468;2023-05-14T11:17:22;8.23;;;7.50;;
53666;SDS011;39568;51.026;5.468;2023-05-14T11:19:52;5.68;;;5.18;;
53666;SDS011;39568;51.026;5.468;2023-05-14T11:22:19;6.55;;;5.95;;
53666;SDS011;39568;51.026;5.468;2023-05-14T11:24:46;16.13;;;7.40;;
53666;SDS011;39568;51.026;5.468;2023-05-14T11:27:13;7.40;;;6.53;;
53666;SDS011;39568;51.026;5.468;2023-05-14T11:29:42;12.27;;;5.93;;
53666;SDS011;39568;51.026;5.468;2023-05-14T11:32:12;6.22;;;5.70;;
53666;SDS011;39568;51.026;5.468;2023-05-14T11:34:42;8.85;;;5.03;;
53666;SDS011;39568;51.026;5.468;2023-05-14T11:37:10;8.00;;;5.65;;
53666;SDS011;39568;51.026;5.468;2023-05-14T11:39:38;10.13;;;6.80;;
53666;SDS011;39568;51.026;5.468;2023-05-14T11:42:08;9.15;;;5.32;;
53666;SDS011;39568;51.026;5.468;2023-05-14T11:44:38;8.40;;;7.22;;
53666;SDS011;39568;51.026;5.468;2023-05-14T11:47:05;6.65;;;6.00;;
53666;SDS011;39568;51.026;5.468;2023-05-14T11:49:34;8.60;;;6.10;;
53666;SDS011;39568;51.026;5.468;2023-05-14T11:52:02;6.15;;;5.65;;
53666;SDS011;39568;51.026;5.468;2023-05-14T11:54:30;6.00;;;5.45;;
53666;SDS011;39568;51.026;5.468;2023-05-14T11:56:57;5.70;;;5.07;;
53666;SDS011;39568;51.026;5.468;2023-05-14T11:59:27;9.73;;;4.68;;
53666;SDS011;39568;51.026;5.468;2023-05-14T12:01:57;4.85;;;3.65;;
53666;SDS011;39568;51.026;5.468;2023-05-14T12:04:24;6.38;;;3.65;;
53666;SDS011;39568;51.026;5.468;2023-05-14T12:06:58;5.00;;;4.45;;
53666;SDS011;39568;51.026;5.468;2023-05-14T12:09:25;4.30;;;3.90;;
53666;SDS011;39568;51.026;5.468;2023-05-14T12:11:53;8.55;;;3.35;;
53666;SDS011;39568;51.026;5.468;2023-05-14T12:14:23;3.45;;;3.15;;
53666;SDS011;39568;51.026;5.468;2023-05-14T12:16:50;3.78;;;3.08;;
53666;SDS011;39568;51.026;5.468;2023-05-14T12:19:23;5.32;;;3.33;;
53666;SDS011;39568;51.026;5.468;2023-05-14T12:21:54;4.45;;;3.33;;
53666;SDS011;39568;51.026;5.468;2023-05-14T12:24:27;8.57;;;3.42;;
53666;SDS011;39568;51.026;5.468;2023-05-14T12:26:54;6.15;;;2.88;;
53666;SDS011;39568;51.026;5.468;2023-05-14T12:29:22;7.00;;;3.65;;
53666;SDS011;39568;51.026;5.468;2023-05-14T12:31:51;3.33;;;3.10;;
53666;SDS011;39568;51.026;5.468;2023-05-14T12:34:18;4.72;;;2.72;;
53666;SDS011;39568;51.026;5.468;2023-05-14T12:36:44;8.70;;;5.03;;
53666;SDS011;39568;51.026;5.468;2023-05-14T12:39:11;19.00;;;7.53;;
53666;SDS011;39568;51.026;5.468;2023-05-14T12:41:39;11.18;;;5.70;;
53666;SDS011;39568;51.026;5.468;2023-05-14T12:44:06;7.20;;;4.32;;
53666;SDS011;39568;51.026;5.468;2023-05-14T12:46:32;7.38;;;3.67;;
53666;SDS011;39568;51.026;5.468;2023-05-14T12:48:59;6.00;;;3.42;;
53666;SDS011;39568;51.026;5.468;2023-05-14T12:51:26;8.15;;;3.75;;
53666;SDS011;39568;51.026;5.468;2023-05-14T12:53:53;3.85;;;3.58;;
53666;SDS011;39568;51.026;5.468;2023-05-14T12:56:19;5.47;;;2.92;;
53666;SDS011;39568;51.026;5.468;2023-05-14T12:58:53;9.30;;;3.35;;
53666;SDS011;39568;51.026;5.468;2023-05-14T13:01:23;4.68;;;3.35;;
53666;SDS011;39568;51.026;5.468;2023-05-14T13:03:50;7.43;;;3.47;;
53666;SDS011;39568;51.026;5.468;2023-05-14T13:06:16;5.25;;;3.75;;
53666;SDS011;39568;51.026;5.468;2023-05-14T13:08:43;5.40;;;3.42;;
53666;SDS011;39568;51.026;5.468;2023-05-14T13:11:10;3.92;;;3.50;;
53666;SDS011;39568;51.026;5.468;2023-05-14T13:13:36;10.48;;;4.03;;
53666;SDS011;39568;51.026;5.468;2023-05-14T13:16:05;11.30;;;3.40;;
53666;SDS011;39568;51.026;5.468;2023-05-14T13:18:32;3.58;;;3.28;;
53666;SDS011;39568;51.026;5.468;2023-05-14T13:20:58;5.45;;;2.90;;
53666;SDS011;39568;51.026;5.468;2023-05-14T13:23:28;2.88;;;2.08;;
53666;SDS011;39568;51.026;5.468;2023-05-14T13:25:54;3.20;;;2.75;;
53666;SDS011;39568;51.026;5.468;2023-05-14T13:28:21;3.38;;;2.50;;
53666;SDS011;39568;51.026;5.468;2023-05-14T13:31:02;5.13;;;3.30;;
53666;SDS011;39568;51.026;5.468;2023-05-14T13:33:32;2.72;;;2.47;;
53666;SDS011;39568;51.026;5.468;2023-05-14T13:36:00;3.20;;;2.50;;
53666;SDS011;39568;51.026;5.468;2023-05-14T13:38:27;3.03;;;2.83;;
53666;SDS011;39568;51.026;5.468;2023-05-14T13:40:56;2.95;;;2.55;;
53666;SDS011;39568;51.026;5.468;2023-05-14T13:43:27;6.22;;;2.67;;
53666;SDS011;39568;51.026;5.468;2023-05-14T13:45:55;6.68;;;3.05;;
53666;SDS011;39568;51.026;5.468;2023-05-14T13:48:23;2.67;;;2.53;;
53666;SDS011;39568;51.026;5.468;2023-05-14T13:50:51;3.38;;;2.53;;
53666;SDS011;39568;51.026;5.468;2023-05-14T13:53:17;4.53;;;3.22;;
53666;SDS011;39568;51.026;5.468;2023-05-14T13:55:45;6.60;;;2.92;;
53666;SDS011;39568;51.026;5.468;2023-05-14T13:58:11;4.63;;;3.10;;
53666;SDS011;39568;51.026;5.468;2023-05-14T14:00:39;3.55;;;2.97;;
53666;SDS011;39568;51.026;5.468;2023-05-14T14:03:09;5.37;;;3.10;;
53666;SDS011;39568;51.026;5.468;2023-05-14T14:05:40;5.30;;;3.17;;
53666;SDS011;39568;51.026;5.468;2023-05-14T14:08:12;8.73;;;3.58;;
53666;SDS011;39568;51.026;5.468;2023-05-14T14:10:38;5.40;;;3.53;;
53666;SDS011;39568;51.026;5.468;2023-05-14T14:13:07;4.15;;;3.75;;
53666;SDS011;39568;51.026;5.468;2023-05-14T14:15:33;4.25;;;3.55;;
53666;SDS011;39568;51.026;5.468;2023-05-14T14:18:00;3.63;;;3.35;;
53666;SDS011;39568;51.026;5.468;2023-05-14T14:20:27;4.70;;;3.20;;
53666;SDS011;39568;51.026;5.468;2023-05-14T14:22:56;8.02;;;2.80;;
53666;SDS011;39568;51.026;5.468;2023-05-14T14:25:23;4.88;;;3.13;;
53666;SDS011;39568;51.026;5.468;2023-05-14T14:27:50;7.00;;;3.55;;
53666;SDS011;39568;51.026;5.468;2023-05-14T14:30:17;6.75;;;2.90;;
53666;SDS011;39568;51.026;5.468;2023-05-14T14:32:44;9.50;;;3.17;;
53666;SDS011;39568;51.026;5.468;2023-05-14T14:35:16;3.97;;;3.42;;
53666;SDS011;39568;51.026;5.468;2023-05-14T14:37:45;4.45;;;3.10;;
53666;SDS011;39568;51.026;5.468;2023-05-14T14:40:19;3.60;;;3.30;;